Terminal Aerodrome Forecast
Issued by NWS

Home | Current Version | Previous Version | Text Only | Print | Product List | Glossary On
Versions: 1 2 3 4 5 6 7 8 9 10 11 12 13 14 15 16 17 18 19 20 21 22 23 24
918
FTUS41 KGYX 292112 AAA
TAFPSM
TAF AMD
KPSM 292112Z 2921/3018 05007KT 3SM BR OVC005
      TEMPO 2921/2924 2SM -DZ BR OVC003
     FM300000 07005KT 2SM -DZ BR OVC003
     FM301100 19008KT 5SM SHRA BR OVC010 WS015/23025KT
     FM301600 22008KT 6SM HZ BKN035=

USA.gov is the U.S. government's official web portal to all federal, state and local government web resources and services.